Time;durP1;ratioP1;P1;durP2;ratioP2;P2;SDS_P1;SDS_P2;PMS_P1;PMS_P2;Temp;Humidity;BMP_temperature;BMP_pressure;BME280_temperature;BME280_humidity;BME280_pressure;Samples;Min_cycle;Max_cycle;Signal;HPM_P1;HPM_P2
2023/05/23 00:01:42;;;;;;;33.97;13.30;;;19.30;99.90;;;19.68;87.88;100467.78;5021567;28;20706;-69
2023/05/23 00:04:09;;;;;;;24.57;12.53;;;19.20;99.90;;;19.66;87.46;100462.66;5031136;28;20710;-71
2023/05/23 00:06:37;;;;;;;22.10;12.27;;;19.20;99.90;;;19.68;87.52;100458.00;5022267;28;20625;-68
2023/05/23 00:09:04;;;;;;;21.33;11.43;;;19.30;99.90;;;19.69;87.14;100457.03;5016969;28;20652;-72
2023/05/23 00:11:31;;;;;;;27.67;11.10;;;19.30;99.90;;;19.66;87.19;100467.94;5029746;28;20653;-76
2023/05/23 00:13:59;;;;;;;27.13;12.13;;;19.20;99.90;;;19.62;86.95;100460.53;5029462;28;20639;-68
2023/05/23 00:16:27;;;;;;;27.73;13.80;;;19.20;99.90;;;19.60;87.32;100460.69;5026691;28;20636;-71
2023/05/23 00:18:56;;;;;;;27.50;11.80;;;19.20;99.90;;;19.56;87.06;100464.69;5026095;28;20664;-70
2023/05/23 00:21:23;;;;;;;26.90;11.33;;;19.20;99.90;;;19.49;87.51;100465.53;5028472;28;21028;-70
2023/05/23 00:23:50;;;;;;;26.40;11.00;;;19.10;99.90;;;19.44;87.85;100455.50;5018150;28;20661;-69
2023/05/23 00:26:17;;;;;;;21.57;9.87;;;19.00;99.90;;;19.43;87.71;100461.75;5020964;28;20601;-72
2023/05/23 00:28:44;;;;;;;24.50;12.00;;;19.00;99.90;;;19.42;87.51;100460.13;5021064;28;20723;-68
2023/05/23 00:31:11;;;;;;;27.03;11.47;;;19.00;99.90;;;19.37;87.80;100457.16;5017839;28;20624;-68
2023/05/23 00:33:38;;;;;;;30.20;11.33;;;19.00;99.90;;;19.32;88.04;100449.69;5026785;28;20632;-70
2023/05/23 00:36:05;;;;;;;19.20;9.93;;;18.90;99.90;;;19.30;88.40;100456.97;5029327;28;21510;-71
2023/05/23 00:38:32;;;;;;;27.47;12.47;;;18.90;99.90;;;19.27;88.42;100461.81;5022832;28;20993;-70
2023/05/23 00:41:00;;;;;;;26.73;12.47;;;18.90;99.90;;;19.23;88.52;100471.03;5026887;28;20704;-70
2023/05/23 00:43:28;;;;;;;25.73;11.10;;;18.80;99.90;;;19.16;88.91;100467.44;5024305;28;20723;-69
2023/05/23 00:45:55;;;;;;;19.90;9.97;;;18.80;99.90;;;19.08;89.40;100457.69;5029566;28;21168;-72
2023/05/23 00:48:23;;;;;;;20.53;10.30;;;18.70;99.90;;;19.00;89.95;100459.53;5024178;28;20723;-69
2023/05/23 00:50:51;;;;;;;22.17;10.27;;;18.60;99.90;;;18.94;90.16;100461.03;5043036;28;20663;-71
2023/05/23 00:53:18;;;;;;;17.90;8.47;;;18.50;99.90;;;18.88;90.70;100451.16;5021805;28;20764;-71
2023/05/23 00:55:45;;;;;;;23.77;11.83;;;18.50;99.90;;;18.87;90.67;100459.25;5029609;28;20726;-69
2023/05/23 00:58:14;;;;;;;19.93;9.50;;;18.50;99.90;;;18.87;91.24;100464.53;5041492;28;20971;-72
2023/05/23 01:00:43;;;;;;;16.97;8.07;;;18.50;99.90;;;18.88;91.23;100455.59;5015399;28;20643;-69
2023/05/23 01:03:16;;;;;;;24.17;10.00;;;18.50;99.90;;;18.88;90.98;100464.34;5010207;28;20660;-69
2023/05/23 01:05:44;;;;;;;26.80;11.40;;;18.50;99.90;;;18.86;90.77;100462.88;5025884;28;20633;-72
2023/05/23 01:08:11;;;;;;;17.30;9.57;;;18.50;99.90;;;18.79;90.91;100467.16;5024515;28;20621;-70
2023/05/23 01:10:38;;;;;;;20.53;9.53;;;18.40;99.90;;;18.74;91.42;100467.66;5012973;28;20652;-71
2023/05/23 01:13:29;;;;;;;20.93;10.77;;;18.30;99.90;;;18.70;91.40;100471.63;5028085;28;20756;-71
2023/05/23 01:16:12;;;;;;;18.50;10.10;;;18.30;99.90;;;18.69;91.65;100471.81;5022627;28;20617;-71
2023/05/23 01:18:56;;;;;;;16.50;8.50;;;18.30;99.90;;;18.66;91.84;100472.13;5016555;28;20691;-70
2023/05/23 01:21:25;;;;;;;20.60;11.47;;;18.30;99.90;;;18.66;92.21;100477.41;5022122;28;20609;-72
2023/05/23 01:24:12;;;;;;;20.77;9.27;;;18.20;99.90;;;18.65;92.15;100473.13;5029177;28;20628;-71
2023/05/23 01:27:12;;;;;;;15.60;8.00;;;18.20;99.90;;;18.62;92.28;100479.56;5017930;28;20621;-70
2023/05/23 01:29:45;;;;;;;18.73;10.17;;;18.20;99.90;;;18.63;92.10;100477.75;5028152;28;20636;-69
2023/05/23 01:32:15;;;;;;;19.80;10.37;;;18.20;99.90;;;18.59;92.45;100472.00;5026886;28;21056;-72
2023/05/23 01:34:42;;;;;;;25.60;11.13;;;18.20;99.90;;;18.59;92.26;100477.28;5015873;28;20700;-69
2023/05/23 01:37:13;;;;;;;18.00;9.60;;;18.20;99.90;;;18.59;92.48;100472.78;5007854;28;20648;-70
2023/05/23 01:39:41;;;;;;;21.03;11.20;;;18.20;99.90;;;18.63;92.30;100483.03;5011014;28;20660;-68
2023/05/23 01:42:08;;;;;;;21.33;11.60;;;18.20;99.90;;;18.65;92.27;100486.34;5020320;28;20716;-69
2023/05/23 01:44:37;;;;;;;19.50;9.20;;;18.20;99.90;;;18.67;91.92;100479.91;5019030;28;20771;-72
2023/05/23 01:47:07;;;;;;;23.80;11.97;;;18.20;99.90;;;18.71;91.44;100480.41;5035370;28;20612;-69
2023/05/23 01:49:35;;;;;;;21.47;10.50;;;18.30;99.90;;;18.71;91.62;100490.97;5024913;28;20661;-69
2023/05/23 01:52:04;;;;;;;18.80;9.80;;;18.30;99.90;;;18.72;91.48;100484.69;5019277;28;20645;-67
2023/05/23 01:54:34;;;;;;;18.13;9.20;;;18.30;99.90;;;18.68;91.50;100484.19;5022310;28;20767;-71
2023/05/23 01:57:01;;;;;;;19.67;10.90;;;18.30;99.90;;;18.72;91.16;100493.44;5028688;28;20686;-69
2023/05/23 01:59:28;;;;;;;24.03;10.77;;;18.30;99.90;;;18.72;91.17;100488.16;5015396;28;20802;-69
2023/05/23 02:01:55;;;;;;;17.90;10.20;;;18.30;99.90;;;18.73;90.95;100487.16;5025956;28;20720;-68
2023/05/23 02:04:22;;;;;;;17.00;9.50;;;18.30;99.90;;;18.74;91.13;100491.44;5020816;28;20711;-68
2023/05/23 02:06:49;;;;;;;20.57;9.63;;;18.30;99.90;;;18.74;90.94;100493.28;5032452;28;21269;-74
2023/05/23 02:09:16;;;;;;;19.63;10.47;;;18.30;99.90;;;18.75;90.76;100492.28;5018278;28;20749;-69
2023/05/23 02:11:43;;;;;;;14.53;8.13;;;18.30;99.90;;;18.76;90.70;100494.75;5022798;28;20625;-69
2023/05/23 02:14:11;;;;;;;19.10;9.90;;;18.30;99.90;;;18.74;90.82;100496.72;5019986;28;20639;-69
2023/05/23 02:16:38;;;;;;;19.03;9.77;;;18.30;99.90;;;18.74;90.98;100499.38;5013399;28;20673;-68
2023/05/23 02:19:06;;;;;;;20.17;9.97;;;18.30;99.90;;;18.72;91.16;100497.91;5027433;28;20859;-72
2023/05/23 02:21:33;;;;;;;16.97;8.67;;;18.30;99.90;;;18.71;90.97;100506.81;5014001;28;20659;-70
2023/05/23 02:24:01;;;;;;;25.40;11.83;;;18.30;99.90;;;18.71;91.36;100506.81;5010461;28;20634;-70
2023/05/23 02:26:28;;;;;;;19.53;10.37;;;18.30;99.90;;;18.67;91.52;100510.78;5027087;28;20739;-71
2023/05/23 02:28:56;;;;;;;21.17;10.57;;;18.30;99.90;;;18.66;91.22;100517.06;5027538;28;20686;-69
2023/05/23 02:31:23;;;;;;;23.27;11.87;;;18.30;99.90;;;18.65;91.50;100518.91;5029250;28;20604;-69
2023/05/23 02:33:50;;;;;;;22.67;10.13;;;18.30;99.90;;;18.64;91.43;100527.78;5021669;28;20639;-72
2023/05/23 02:36:17;;;;;;;18.90;9.57;;;18.20;99.90;;;18.51;92.01;100523.00;5031584;28;20600;-69
2023/05/23 02:38:44;;;;;;;26.90;11.57;;;18.30;99.90;;;18.45;92.38;100530.75;5021821;28;20663;-71
2023/05/23 02:41:11;;;;;;;19.10;9.67;;;18.20;99.90;;;18.42;92.83;100537.16;5032148;28;20596;-69
2023/05/23 02:43:38;;;;;;;18.57;9.80;;;18.20;99.90;;;18.38;92.54;100535.81;5023148;28;20664;-72
2023/05/23 02:46:05;;;;;;;14.60;9.27;;;18.10;99.90;;;18.35;92.72;100533.53;5025953;28;21445;-69
2023/05/23 02:48:32;;;;;;;19.33;10.10;;;18.10;99.90;;;18.33;92.68;100535.50;5009552;28;20641;-72
2023/05/23 02:50:59;;;;;;;26.77;11.67;;;18.10;99.90;;;18.32;92.73;100530.34;5017946;28;21005;-69
2023/05/23 02:53:26;;;;;;;17.10;8.83;;;18.10;99.90;;;18.44;91.85;100542.31;5012410;28;20736;-74
2023/05/23 02:55:53;;;;;;;21.40;10.67;;;18.10;99.90;;;18.47;91.20;100547.25;5021910;28;21283;-69
2023/05/23 02:58:20;;;;;;;15.80;7.27;;;18.10;99.90;;;18.47;91.12;100553.38;5028222;28;20640;-69
2023/05/23 03:00:47;;;;;;;18.40;9.10;;;18.10;99.90;;;18.48;90.83;100549.72;5011505;28;20705;-70
2023/05/23 03:03:15;;;;;;;12.13;7.87;;;18.10;99.90;;;18.46;90.48;100546.44;5017428;28;20644;-73
2023/05/23 03:05:43;;;;;;;19.57;10.20;;;18.10;99.90;;;18.47;89.99;100540.16;5029336;28;20645;-72
2023/05/23 03:08:10;;;;;;;18.67;10.10;;;18.10;99.90;;;18.46;90.33;100541.16;5029909;28;20617;-69
2023/05/23 03:10:37;;;;;;;13.87;8.80;;;18.10;99.90;;;18.48;89.75;100549.72;5013581;28;20649;-75
2023/05/23 03:13:04;;;;;;;19.07;10.20;;;18.10;99.90;;;18.45;89.10;100544.78;5011227;28;20616;-69
2023/05/23 03:15:31;;;;;;;18.37;10.43;;;18.00;99.90;;;18.47;89.12;100547.25;5027976;28;20715;-71
2023/05/23 03:17:58;;;;;;;15.53;8.97;;;18.00;99.90;;;18.47;89.03;100548.09;5015351;28;20700;-68
2023/05/23 03:20:25;;;;;;;19.87;10.37;;;18.10;99.90;;;18.49;88.64;100556.69;5025141;28;20714;-73
2023/05/23 03:22:52;;;;;;;17.17;8.30;;;18.10;99.90;;;18.34;88.90;100555.63;5029099;28;20972;-69
2023/05/23 03:25:19;;;;;;;22.00;8.30;;;18.10;99.90;;;18.39;88.36;100555.97;5021826;28;20668;-66
2023/05/23 03:27:46;;;;;;;18.63;10.60;;;18.10;99.90;;;18.41;87.57;100567.22;5009787;28;20669;-70
2023/05/23 03:30:13;;;;;;;16.80;9.00;;;18.10;99.90;;;18.41;87.30;100561.09;5014594;28;20670;-69
2023/05/23 03:32:43;;;;;;;16.00;7.57;;;18.00;99.90;;;18.39;87.16;100563.91;5031477;28;20604;-69
2023/05/23 03:35:13;;;;;;;18.53;10.57;;;18.00;99.90;;;18.41;86.83;100558.44;5026183;28;20707;-70
2023/05/23 03:37:43;;;;;;;13.03;8.07;;;18.00;99.90;;;18.36;86.42;100555.47;5018655;28;20627;-70
2023/05/23 03:40:11;;;;;;;20.23;10.80;;;18.00;99.90;;;18.33;86.18;100567.19;5009281;28;21240;-69
2023/05/23 03:42:41;;;;;;;21.13;12.10;;;18.00;99.90;;;18.30;86.03;100569.31;5009766;28;20605;-70
2023/05/23 03:45:08;;;;;;;27.83;11.73;;;17.90;99.90;;;18.25;86.36;100577.72;5024053;28;20648;-71
2023/05/23 03:47:35;;;;;;;19.53;10.60;;;17.90;99.90;;;18.25;86.15;100575.06;5022489;28;20645;-70
2023/05/23 03:50:06;;;;;;;16.37;9.60;;;17.90;99.90;;;18.25;86.13;100575.06;5023661;28;20652;-70
2023/05/23 03:52:32;;;;;;;18.80;10.60;;;17.90;99.90;;;18.27;85.67;100567.81;5011210;28;20737;-70
2023/05/23 03:55:02;;;;;;;23.23;11.87;;;17.90;99.90;;;18.28;85.16;100573.94;5022984;28;20720;-72
2023/05/23 03:57:32;;;;;;;11.37;6.47;;;17.90;99.90;;;18.29;85.23;100576.41;5018682;28;20636;-68
2023/05/23 04:00:05;;;;;;;15.43;9.00;;;17.90;99.90;;;18.31;84.54;100577.09;5030230;28;20742;-70
2023/05/23 04:02:39;;;;;;;18.07;9.37;;;18.00;99.90;;;18.31;83.81;100570.97;5007375;28;20713;-73
2023/05/23 04:05:09;;;;;;;14.87;8.37;;;17.90;99.90;;;18.30;83.80;100575.44;5023802;28;20656;-69
2023/05/23 04:07:37;;;;;;;15.53;9.57;;;17.90;99.90;;;18.26;83.35;100576.75;5020096;28;20630;-68
2023/05/23 04:10:04;;;;;;;12.40;7.90;;;17.90;99.90;;;18.27;83.55;100577.56;5012979;28;20660;-69
2023/05/23 04:12:31;;;;;;;21.30;10.87;;;17.90;99.90;;;18.28;83.54;100584.50;5027474;28;21201;-69
2023/05/23 04:14:58;;;;;;;18.00;9.27;;;17.90;99.90;;;18.29;83.06;100592.25;5015295;28;21005;-69
2023/05/23 04:17:29;;;;;;;21.77;10.73;;;17.90;99.90;;;18.26;82.73;100597.88;5008040;28;21226;-69
2023/05/23 04:19:57;;;;;;;16.77;8.47;;;17.90;99.90;;;18.29;82.82;100597.53;5016204;28;20656;-72
2023/05/23 04:22:24;;;;;;;19.17;9.97;;;17.90;99.90;;;18.37;82.16;100600.22;5025918;28;20631;-69
2023/05/23 04:24:51;;;;;;;17.10;9.97;;;18.00;99.90;;;18.43;81.96;100586.38;5028354;28;20747;-70
2023/05/23 04:27:18;;;;;;;15.27;8.47;;;18.10;99.90;;;18.57;81.64;100603.41;5020404;28;20641;-69
2023/05/23 04:29:45;;;;;;;16.83;8.77;;;18.10;99.90;;;18.68;81.22;100602.28;5009625;28;20748;-70
2023/05/23 04:32:13;;;;;;;11.73;7.70;;;18.30;99.90;;;18.74;80.32;100599.81;5007657;28;20641;-70
2023/05/23 04:34:40;;;;;;;20.20;8.03;;;18.40;99.90;;;18.81;79.28;100600.00;5015291;28;20636;-69
2023/05/23 04:37:08;;;;;;;22.07;10.10;;;18.40;99.90;;;18.81;79.24;100608.75;5028235;28;20635;-71
2023/05/23 04:39:35;;;;;;;14.60;9.17;;;18.50;99.90;;;18.93;79.19;100606.63;5018648;28;20700;-72
2023/05/23 04:42:02;;;;;;;17.00;9.50;;;18.50;99.90;;;18.99;78.01;100608.63;5010327;28;21065;-69
2023/05/23 04:44:29;;;;;;;13.83;8.70;;;18.60;99.90;;;19.08;77.12;100608.44;5016863;28;20644;-72
2023/05/23 04:46:56;;;;;;;15.83;9.20;;;18.70;99.90;;;19.20;76.39;100617.72;5023328;28;20669;-69
2023/05/23 04:49:24;;;;;;;19.77;10.97;;;18.80;99.90;;;19.33;75.13;100617.19;5027670;28;20691;-70
2023/05/23 04:51:51;;;;;;;13.27;7.87;;;19.00;99.90;;;19.43;74.77;100628.47;5023310;28;20632;-69
2023/05/23 04:54:18;;;;;;;17.83;9.57;;;19.00;99.90;;;19.54;74.78;100628.13;5014903;28;20668;-68
2023/05/23 04:56:45;;;;;;;14.00;8.87;;;19.10;99.90;;;19.63;73.84;100636.88;5017793;28;21208;-74
2023/05/23 04:59:12;;;;;;;12.77;7.70;;;19.20;99.90;;;19.72;73.52;100644.63;5024792;28;20653;-69
2023/05/23 05:01:39;;;;;;;12.90;8.10;;;19.30;99.90;;;19.83;72.51;100636.31;5009319;28;20647;-70
2023/05/23 05:04:06;;;;;;;14.60;9.30;;;19.40;99.90;;;19.84;71.79;100645.94;5019364;28;20668;-69
2023/05/23 05:06:33;;;;;;;11.60;8.00;;;19.50;99.90;;;19.87;71.70;100656.16;5025675;28;20667;-69
2023/05/23 05:09:00;;;;;;;14.50;8.90;;;19.50;99.90;;;19.81;71.69;100650.72;5027860;28;20644;-69
2023/05/23 05:11:27;;;;;;;14.50;8.47;;;19.50;99.90;;;19.69;71.92;100647.63;5027721;28;21014;-67
2023/05/23 05:13:54;;;;;;;13.53;7.77;;;19.30;99.90;;;19.58;72.37;100645.31;5016356;28;20629;-69
2023/05/23 05:16:21;;;;;;;11.27;6.80;;;19.20;99.90;;;19.52;72.75;100650.44;5025402;28;20633;-71
2023/05/23 05:18:48;;;;;;;11.33;6.70;;;19.20;99.90;;;19.48;72.36;100649.97;5026096;28;20686;-69
2023/05/23 05:21:15;;;;;;;14.20;8.87;;;19.10;99.90;;;19.40;72.37;100649.94;5030382;28;20604;-72
2023/05/23 05:23:42;;;;;;;13.37;8.40;;;19.10;99.90;;;19.47;72.01;100656.25;5011791;28;20779;-70
2023/05/23 05:26:09;;;;;;;11.47;6.60;;;19.10;99.90;;;19.48;71.43;100657.06;5032944;28;20660;-69
2023/05/23 05:28:37;;;;;;;16.27;11.07;;;19.10;99.90;;;19.25;71.57;100655.06;5018441;28;20664;-69
2023/05/23 05:31:04;;;;;;;13.10;7.77;;;19.00;99.90;;;19.18;71.22;100647.94;5022533;28;20620;-71
2023/05/23 05:33:35;;;;;;;17.33;9.83;;;18.90;99.90;;;18.99;71.63;100653.56;5029125;28;20667;-68
2023/05/23 05:36:05;;;;;;;13.60;7.97;;;18.70;99.90;;;19.06;71.72;100663.31;5014005;28;20602;-72
2023/05/23 05:38:32;;;;;;;10.70;5.77;;;18.70;99.90;;;19.24;71.03;100668.44;5013234;28;21063;-71
2023/05/23 05:40:59;;;;;;;16.23;9.27;;;18.80;99.90;;;19.26;70.96;100672.59;5033394;28;20680;-70
2023/05/23 05:43:26;;;;;;;12.87;8.20;;;18.90;99.90;;;19.34;70.52;100674.44;5031306;28;20644;-69
2023/05/23 05:45:53;;;;;;;14.30;7.70;;;18.90;99.90;;;19.34;70.42;100669.97;5032234;28;20674;-69
2023/05/23 05:48:20;;;;;;;9.80;5.97;;;19.00;99.90;;;19.28;70.54;100669.78;5029855;28;20633;-69
2023/05/23 05:50:47;;;;;;;11.43;6.90;;;18.90;99.90;;;19.26;70.26;100679.69;5031331;28;20640;-66
2023/05/23 05:53:14;;;;;;;12.17;7.67;;;18.90;99.90;;;19.28;70.25;100685.66;5029615;28;20628;-73
2023/05/23 05:55:41;;;;;;;13.10;7.17;;;18.90;99.90;;;19.32;70.29;100682.50;5014558;28;20655;-68
2023/05/23 05:58:08;;;;;;;15.27;8.73;;;18.90;99.90;;;19.39;70.00;100693.28;5012297;28;20597;-70
2023/05/23 06:00:40;;;;;;;12.50;8.37;;;19.00;99.90;;;19.39;70.19;100681.88;5030678;28;20751;-65
2023/05/23 06:03:08;;;;;;;14.37;8.73;;;19.10;99.90;;;19.28;70.51;100696.22;5033410;28;20662;-68
2023/05/23 06:05:38;;;;;;;13.30;8.90;;;18.90;99.90;;;19.36;70.78;100701.53;5022120;28;20759;-66
2023/05/23 06:08:05;;;;;;;17.40;9.73;;;19.00;99.90;;;19.37;70.88;100699.75;5012072;28;20692;-68
2023/05/23 06:10:32;;;;;;;8.80;6.10;;;19.00;99.90;;;19.30;70.07;100703.00;5016532;28;21082;-74
2023/05/23 06:12:59;;;;;;;12.50;6.77;;;19.00;99.90;;;19.24;70.24;100708.97;5027047;28;21245;-69
2023/05/23 06:15:26;;;;;;;16.27;9.50;;;18.90;99.90;;;19.28;70.07;100704.16;5035611;28;20637;-69
2023/05/23 06:17:53;;;;;;;13.00;7.03;;;18.90;99.90;;;19.25;70.02;100717.75;5026044;28;20625;-70
2023/05/23 06:20:21;;;;;;;12.40;8.20;;;18.90;99.90;;;19.24;70.68;100713.41;5017639;28;20664;-66
2023/05/23 06:22:48;;;;;;;12.87;7.90;;;18.90;99.90;;;19.24;70.52;100719.56;5030640;28;20602;-69
2023/05/23 06:25:15;;;;;;;16.53;10.33;;;18.90;99.90;;;19.20;70.78;100720.03;5021999;28;20625;-69
2023/05/23 06:27:43;;;;;;;16.07;10.27;;;18.90;99.90;;;19.14;70.74;100724.16;5024101;28;20638;-69
2023/05/23 06:30:11;;;;;;;15.80;9.53;;;18.80;99.90;;;19.01;70.39;100728.25;5019278;28;20691;-68
2023/05/23 06:32:40;;;;;;;15.30;11.43;;;18.70;99.90;;;18.85;71.64;100731.69;5025293;28;20721;-69
2023/05/23 06:35:07;;;;;;;14.27;7.97;;;18.50;99.90;;;18.80;72.15;100731.34;5013051;28;20683;-68
2023/05/23 06:37:34;;;;;;;14.27;8.90;;;18.40;99.90;;;18.80;72.96;100731.34;5026818;28;20709;-68
2023/05/23 06:40:01;;;;;;;13.80;8.43;;;18.40;99.90;;;18.76;72.65;100739.75;5031131;28;20640;-73
2023/05/23 06:42:28;;;;;;;15.23;10.77;;;18.40;99.90;;;18.70;72.80;100741.22;5011403;28;21197;-67
2023/05/23 06:44:55;;;;;;;15.17;10.10;;;18.40;99.90;;;18.58;72.78;100735.41;5019956;28;20651;-73
2023/05/23 06:47:22;;;;;;;14.63;9.07;;;18.20;99.90;;;18.61;73.45;100744.00;5011429;28;20679;-69
2023/05/23 06:49:49;;;;;;;13.80;9.90;;;18.20;99.90;;;18.70;73.45;100740.41;5025034;28;20659;-71
2023/05/23 06:52:16;;;;;;;11.10;7.17;;;18.30;99.90;;;18.79;72.79;100748.19;5037698;28;20742;-69
2023/05/23 06:54:43;;;;;;;15.07;8.97;;;18.40;99.90;;;18.82;72.69;100749.69;5038753;28;20600;-69
2023/05/23 06:57:10;;;;;;;10.87;7.77;;;18.40;99.90;;;18.75;72.48;100751.31;5011900;28;20696;-66
2023/05/23 06:59:37;;;;;;;11.20;6.60;;;18.40;99.90;;;18.76;72.33;100759.06;5023021;28;20739;-68
2023/05/23 07:02:05;;;;;;;10.00;7.10;;;18.40;99.90;;;18.74;72.16;100760.25;5011246;28;21158;-67
2023/05/23 07:04:31;;;;;;;8.77;5.63;;;18.40;99.90;;;18.70;72.17;100762.34;5012002;28;21384;-70
2023/05/23 07:06:58;;;;;;;11.10;8.00;;;18.40;99.90;;;18.65;71.91;100771.75;5010105;28;21138;-68
2023/05/23 07:09:25;;;;;;;13.47;7.60;;;18.30;99.90;;;18.65;71.65;100771.75;5014527;28;21258;-68
2023/05/23 07:11:52;;;;;;;10.57;6.60;;;18.30;99.90;;;18.61;71.68;100765.13;5029624;28;20976;-67
2023/05/23 07:14:20;;;;;;;9.50;6.37;;;18.20;99.90;;;18.53;71.93;100771.19;5017452;28;20667;-68
2023/05/23 07:16:47;;;;;;;10.43;5.90;;;18.20;99.90;;;18.54;72.25;100775.50;5016571;28;20644;-69
2023/05/23 07:19:14;;;;;;;10.10;5.07;;;18.10;99.90;;;18.62;72.36;100775.53;5019389;28;20660;-71
2023/05/23 07:21:41;;;;;;;6.87;4.80;;;18.20;99.90;;;18.71;72.04;100781.69;5012971;28;20640;-68
2023/05/23 07:24:08;;;;;;;7.87;5.40;;;18.30;99.90;;;18.76;71.84;100779.41;5014906;28;20620;-69
2023/05/23 07:26:35;;;;;;;8.40;5.80;;;18.30;99.90;;;18.83;70.66;100780.41;5026575;28;21231;-68
2023/05/23 07:29:02;;;;;;;7.73;5.00;;;18.40;99.90;;;18.91;70.71;100773.34;5026872;28;20743;-68
2023/05/23 07:31:29;;;;;;;7.70;6.13;;;18.50;99.90;;;18.91;69.89;100773.34;5030607;28;21013;-68
2023/05/23 07:33:56;;;;;;;9.30;6.70;;;18.50;99.90;;;18.96;69.03;100776.34;5029701;28;20633;-68
2023/05/23 07:36:23;;;;;;;5.47;4.70;;;18.60;99.90;;;19.09;67.35;100778.53;5028303;28;20676;-69
2023/05/23 07:38:52;;;;;;;6.27;5.00;;;18.70;99.90;;;19.21;66.83;100774.56;5011791;28;20685;-68
2023/05/23 07:41:18;;;;;;;5.50;4.57;;;18.80;99.90;;;19.32;67.05;100779.56;5018778;28;20662;-73
2023/05/23 07:43:45;;;;;;;5.50;3.93;;;18.90;99.90;;;19.57;66.69;100781.28;5019613;28;20620;-70
2023/05/23 07:46:12;;;;;;;5.33;4.83;;;19.10;99.90;;;19.73;65.22;100778.66;5021641;28;20645;-71
2023/05/23 07:48:40;;;;;;;5.47;5.07;;;19.30;99.90;;;19.72;64.39;100773.53;5011703;28;21295;-69
2023/05/23 07:51:07;;;;;;;4.20;3.90;;;19.40;99.90;;;19.51;64.57;100791.69;5031079;28;20628;-68
2023/05/23 07:53:38;;;;;;;5.00;4.30;;;19.20;99.90;;;19.32;65.14;100790.97;5028072;28;20639;-69
2023/05/23 07:56:06;;;;;;;5.77;3.37;;;19.00;99.90;;;19.14;65.35;100778.88;5020143;28;20640;-68
2023/05/23 07:58:33;;;;;;;3.53;3.23;;;18.90;99.90;;;19.04;66.00;100786.09;5028368;28;20636;-68
2023/05/23 08:01:00;;;;;;;3.93;3.60;;;18.70;99.90;;;18.90;66.49;100784.09;5013342;28;20691;-67
2023/05/23 08:03:27;;;;;;;4.00;3.70;;;18.60;99.90;;;18.84;67.12;100792.66;5016459;28;21015;-68
2023/05/23 08:05:54;;;;;;;3.90;2.90;;;18.50;99.90;;;18.88;67.27;100796.63;5019358;28;21254;-69
2023/05/23 08:08:20;;;;;;;4.07;3.73;;;18.50;99.90;;;19.02;66.55;100788.91;5018246;28;20639;-70
2023/05/23 08:10:48;;;;;;;4.27;3.40;;;18.60;99.90;;;19.14;65.73;100785.00;5012215;28;20676;-69
2023/05/23 08:13:15;;;;;;;4.37;3.87;;;18.70;99.90;;;19.23;65.52;100784.00;5028653;28;20694;-72
2023/05/23 08:15:42;;;;;;;3.63;3.30;;;18.80;99.90;;;19.32;65.77;100788.34;5037572;28;20655;-72
2023/05/23 08:18:10;;;;;;;5.77;4.27;;;18.90;99.90;;;19.34;65.91;100781.09;5012431;28;20648;-70
2023/05/23 08:20:37;;;;;;;3.43;3.13;;;19.00;99.90;;;19.42;66.31;100790.88;5017867;28;20656;-69
2023/05/23 08:23:04;;;;;;;4.10;2.80;;;19.00;99.90;;;19.49;66.83;100799.81;5033020;28;20621;-70
2023/05/23 08:25:32;;;;;;;5.40;3.50;;;19.10;99.90;;;19.53;67.22;100805.63;5014261;28;20659;-69
2023/05/23 08:28:00;;;;;;;2.50;2.30;;;19.10;99.90;;;19.57;66.63;100802.44;5009421;28;20634;-69
2023/05/23 08:30:28;;;;;;;3.50;2.37;;;19.20;99.90;;;19.63;66.86;100799.16;5025847;28;20658;-69
2023/05/23 08:32:55;;;;;;;2.50;2.30;;;19.20;99.90;;;19.79;66.86;100782.44;5025230;28;20652;-71
2023/05/23 08:35:23;;;;;;;2.23;2.13;;;19.30;99.90;;;21.12;63.82;100784.31;5028226;28;20704;-69
2023/05/23 08:37:51;;;;;;;3.23;3.00;;;20.50;99.90;;;23.17;57.38;100788.97;5025435;28;20636;-73
2023/05/23 08:40:20;;;;;;;2.70;2.50;;;22.40;99.90;;;25.59;50.91;100794.31;5031972;28;21216;-72
2023/05/23 08:42:49;;;;;;;3.30;2.47;;;24.80;99.90;;;27.74;45.03;100798.25;5026470;28;21097;-72
2023/05/23 08:45:16;;;;;;;2.70;2.60;;;27.20;98.00;;;29.07;40.90;100794.84;5010121;28;21192;-71
2023/05/23 08:47:44;;;;;;;2.37;2.27;;;28.80;93.00;;;30.40;39.83;100799.66;5008851;28;21020;-70
2023/05/23 08:50:15;;;;;;;1.67;1.57;;;30.40;88.40;;;32.00;36.84;100803.84;5010567;28;21013;-69
2023/05/23 08:53:07;;;;;;;2.40;2.27;;;31.60;83.50;;;33.65;33.95;100810.81;5025425;28;20707;-70
2023/05/23 08:55:34;;;;;;;2.13;2.03;;;33.30;75.30;;;33.57;33.09;100806.69;5022636;28;20625;-67
2023/05/23 08:58:03;;;;;;;2.50;2.40;;;33.80;70.10;;;32.80;34.16;100801.47;5025270;28;20628;-66
2023/05/23 09:00:30;;;;;;;2.10;2.00;;;33.20;68.20;;;32.70;35.00;100795.97;5018747;28;20707;-68
2023/05/23 09:02:59;;;;;;;2.53;2.43;;;32.80;69.00;;;33.17;33.74;100798.97;5017118;28;20993;-67
2023/05/23 09:05:26;;;;;;;2.23;2.13;;;33.10;67.60;;;32.55;34.67;100803.88;5025649;28;20616;-67
2023/05/23 09:07:53;;;;;;;2.77;2.67;;;32.80;66.90;;;30.82;36.27;100797.56;5019599;28;20661;-69
2023/05/23 09:10:21;;;;;;;2.60;2.40;;;31.40;67.20;;;29.39;38.85;100793.59;5025309;28;20668;-71
2023/05/23 09:12:48;;;;;;;2.27;2.13;;;29.90;69.70;;;27.89;41.38;100797.94;5033489;28;20662;-70
2023/05/23 09:15:15;;;;;;;1.60;1.60;;;28.30;72.10;;;26.96;43.59;100799.50;5019081;28;20651;-68
2023/05/23 09:17:44;;;;;;;1.60;1.50;;;27.20;75.30;;;26.29;44.89;100783.84;5028471;28;21179;-67
2023/05/23 09:20:16;;;;;;;1.93;1.83;;;26.40;77.10;;;25.90;45.84;100792.69;5024225;28;21310;-71
2023/05/23 09:22:47;;;;;;;2.67;2.53;;;26.00;78.80;;;25.26;48.01;100786.19;5010196;28;20638;-69
2023/05/23 09:25:15;;;;;;;2.87;2.53;;;25.40;81.20;;;24.60;49.55;100798.41;5020375;28;20632;-68
2023/05/23 09:27:42;;;;;;;2.33;2.23;;;24.70;83.80;;;23.94;51.86;100796.31;5029816;28;21227;-68
2023/05/23 09:30:13;;;;;;;2.23;2.13;;;24.00;87.90;;;23.65;51.94;100797.28;5042122;28;21036;-72
2023/05/23 09:32:41;;;;;;;2.80;2.60;;;23.60;88.80;;;24.21;50.96;100793.69;5050758;28;20627;-71
2023/05/23 09:35:12;;;;;;;1.60;1.50;;;23.90;88.80;;;25.06;49.88;100801.34;5051683;28;20620;-69
2023/05/23 09:37:45;;;;;;;1.33;1.30;;;24.60;88.80;;;25.96;47.41;100797.19;5024751;28;20670;-67
2023/05/23 09:40:13;;;;;;;1.90;1.80;;;25.50;86.40;;;26.05;46.39;100809.34;5023513;28;21023;-67
2023/05/23 09:42:43;;;;;;;2.80;2.60;;;25.80;84.90;;;25.66;47.36;100803.97;5030048;28;20649;-69
2023/05/23 09:45:12;;;;;;;2.10;1.83;;;25.60;85.20;;;25.45;47.49;100789.97;5011079;28;20625;-68
2023/05/23 09:47:39;;;;;;;2.43;2.33;;;25.30;85.60;;;25.27;48.15;100796.69;5009643;28;20661;-67
2023/05/23 09:50:07;;;;;;;2.40;2.20;;;25.10;86.70;;;24.94;48.64;100794.91;5011349;28;20665;-66
2023/05/23 09:52:37;;;;;;;3.30;3.00;;;24.80;87.60;;;24.52;49.92;100802.09;5013620;28;20664;-71
2023/05/23 09:55:05;;;;;;;2.30;2.10;;;24.40;88.60;;;24.03;51.23;100787.97;5040833;28;20612;-68
2023/05/23 09:57:41;;;;;;;1.93;1.73;;;23.90;90.30;;;23.55;52.92;100802.09;5008259;28;21089;-66
2023/05/23 10:00:16;;;;;;;2.63;2.43;;;23.40;91.40;;;22.92;55.14;100803.63;5027422;28;20655;-70
2023/05/23 10:03:12;;;;;;;2.90;2.70;;;22.80;92.70;;;22.35;56.81;100798.09;5032346;28;20619;-70
2023/05/23 10:05:47;;;;;;;2.50;2.30;;;22.30;94.20;;;21.80;58.61;100813.53;5015128;28;20632;-68
2023/05/23 10:08:35;;;;;;;2.93;2.73;;;21.70;95.70;;;21.46;59.39;100807.81;5024417;28;21281;-70
2023/05/23 10:11:15;;;;;;;6.23;4.50;;;21.30;97.10;;;20.86;61.54;100807.59;5015411;28;20621;-72